createdAt,value
2022-12-18T00:00:24.481Z,-0.77
2022-12-18T00:02:57.427Z,-0.46
2022-12-18T00:05:25.610Z,-0.63
2022-12-18T00:07:53.493Z,-0.69
2022-12-18T00:10:21.641Z,-0.64
2022-12-18T00:12:49.691Z,-0.87
2022-12-18T00:15:17.866Z,-0.64
2022-12-18T00:17:45.771Z,-0.63
2022-12-18T00:20:15.351Z,-0.72
2022-12-18T00:22:43.246Z,-0.60
2022-12-18T00:25:11.322Z,-0.57
2022-12-18T04:58:36.215Z,-0.16
2022-12-18T05:01:04.780Z,-0.31
2022-12-18T05:03:32.794Z,-0.43
2022-12-18T05:06:00.764Z,-0.19
2022-12-18T05:08:28.814Z,-0.20
2022-12-18T05:11:01.010Z,-0.25
2022-12-18T05:13:29.077Z,-0.35
2022-12-18T05:15:58.538Z,-0.26
2022-12-18T05:18:27.278Z,-0.37
2022-12-18T05:20:56.248Z,-0.39
2022-12-18T05:23:25.714Z,-0.19
2022-12-18T05:25:54.783Z,-0.23
2022-12-18T05:28:23.459Z,-0.26
2022-12-18T05:30:51.883Z,-0.42
2022-12-18T05:33:22.099Z,-0.19
2022-12-18T05:35:52.516Z,-0.11
2022-12-18T05:38:20.714Z,-0.35
2022-12-18T05:40:49.847Z,-0.22
2022-12-18T05:43:21.396Z,-0.37
2022-12-18T05:45:50.705Z,-0.45
2022-12-18T05:48:19.589Z,-0.67
2022-12-18T05:50:50.436Z,-0.62
2022-12-18T05:53:21.177Z,-0.72
2022-12-18T05:55:50.218Z,-0.71
2022-12-18T05:58:18.322Z,-0.58
2022-12-18T06:00:48.166Z,-0.58
2022-12-18T06:03:16.262Z,-0.53
2022-12-18T06:05:46.196Z,-0.35
2022-12-18T06:08:15.600Z,-0.32
2022-12-18T06:10:44.216Z,-0.50
2022-12-18T06:13:12.159Z,-0.47
2022-12-18T06:15:40.574Z,-0.34
2022-12-18T06:18:08.452Z,-0.59
2022-12-18T06:20:37.550Z,-0.45
2022-12-18T06:23:05.682Z,-0.54
2022-12-18T06:25:35.014Z,-0.70
2022-12-18T06:28:02.941Z,-0.54
2022-12-18T06:30:30.783Z,-0.56
2022-12-18T06:32:58.660Z,-0.45
2022-12-18T06:35:26.575Z,-0.49
2022-12-18T06:37:54.514Z,-0.32
2022-12-18T06:40:22.696Z,-0.47
2022-12-18T06:42:51.919Z,-0.27
2022-12-18T06:45:19.898Z,-0.26
2022-12-18T06:47:48.012Z,-0.28
2022-12-18T06:50:16.026Z,-0.33
2022-12-18T06:52:44.948Z,-0.47
2022-12-18T06:55:13.882Z,-0.58
2022-12-18T06:57:41.844Z,-0.72
2022-12-18T07:00:12.223Z,-0.61
2022-12-18T07:02:40.482Z,-0.41
2022-12-18T07:05:11.032Z,-0.35
2022-12-18T07:07:39.163Z,-0.25
2022-12-18T07:10:07.678Z,-0.37
2022-12-18T07:12:35.593Z,-0.35
2022-12-18T07:15:03.694Z,-0.27
2022-12-18T07:17:33.001Z,-0.50
2022-12-18T07:20:01.046Z,-0.60
2022-12-18T07:22:29.010Z,-0.73
2022-12-18T07:24:57.283Z,-0.63
2022-12-18T07:27:25.517Z,-0.55
2022-12-18T07:29:53.485Z,-0.63
2022-12-18T07:32:21.544Z,-0.46
2022-12-18T07:34:50.776Z,-0.36
2022-12-18T07:37:18.655Z,-0.33
2022-12-18T07:39:46.652Z,-0.32
2022-12-18T07:42:40.797Z,-0.36
2022-12-18T07:45:10.068Z,-0.42
2022-12-18T07:47:38.058Z,-0.54
2022-12-18T07:50:08.488Z,-0.46
2022-12-18T07:52:36.568Z,-0.54
2022-12-18T07:55:05.412Z,-0.47
2022-12-18T07:57:49.905Z,-0.28
2022-12-18T08:00:19.797Z,-0.24
2022-12-18T08:02:49.883Z,-0.21
2022-12-18T08:05:19.494Z,-0.22
2022-12-18T08:07:47.414Z,-0.19
2022-12-18T08:10:15.867Z,-0.40
2022-12-18T08:12:43.786Z,-0.33
2022-12-18T08:15:12.418Z,-0.32
2022-12-18T08:17:40.305Z,-0.27
2022-12-18T08:20:09.514Z,-0.22
2022-12-18T08:22:41.506Z,-0.18
2022-12-18T08:25:10.319Z,-0.12
2022-12-18T08:27:38.416Z,0.01
2022-12-18T08:30:07.465Z,0.14
2022-12-18T08:32:35.527Z,0.29
2022-12-18T08:35:03.718Z,0.42
2022-12-18T08:37:31.603Z,0.61
2022-12-18T08:40:00.855Z,0.70
2022-12-18T08:42:46.603Z,0.84
2022-12-18T08:45:15.062Z,0.87
2022-12-18T08:47:42.953Z,0.82
2022-12-18T08:50:12.160Z,0.85
2022-12-18T08:52:40.149Z,0.90
2022-12-18T08:55:11.282Z,0.94
2022-12-18T08:57:39.482Z,0.88
2022-12-18T09:00:08.871Z,0.95
2022-12-18T09:02:37.059Z,0.98
2022-12-18T09:05:05.964Z,1.01
2022-12-18T09:07:33.894Z,1.02
2022-12-18T09:10:02.223Z,1.02
2022-12-18T09:12:32.609Z,1.04
2022-12-18T09:15:00.516Z,1.12
2022-12-18T09:17:28.427Z,1.16
2022-12-18T09:19:56.326Z,1.14
2022-12-18T09:22:24.279Z,1.14
2022-12-18T09:24:52.235Z,1.16
2022-12-18T09:27:20.304Z,1.21
2022-12-18T09:29:49.720Z,1.32
2022-12-18T09:32:22.198Z,1.33
2022-12-18T09:34:50.614Z,1.39
2022-12-18T09:37:18.464Z,1.43
2022-12-18T09:39:46.399Z,1.44
2022-12-18T09:42:22.474Z,1.39
2022-12-18T09:44:55.638Z,1.42
2022-12-18T09:47:27.537Z,1.36
2022-12-18T09:49:59.396Z,1.21
2022-12-18T09:52:32.629Z,1.24
2022-12-18T09:55:02.625Z,1.44
2022-12-18T09:57:33.449Z,1.24
2022-12-18T10:00:08.501Z,1.18
2022-12-18T10:02:39.767Z,1.19
2022-12-18T10:05:11.413Z,1.30
2022-12-18T10:07:53.087Z,1.26
2022-12-18T10:10:29.052Z,1.33
2022-12-18T10:13:04.867Z,1.31
2022-12-18T10:15:40.815Z,1.43
2022-12-18T10:18:32.887Z,1.35
2022-12-18T10:21:08.268Z,1.32
2022-12-18T10:23:48.573Z,1.48
2022-12-18T10:26:16.829Z,1.50
2022-12-18T10:28:46.132Z,1.55
2022-12-18T10:31:18.954Z,1.55
2022-12-18T10:33:47.309Z,1.53
2022-12-18T10:36:15.753Z,1.68
2022-12-18T10:38:44.537Z,1.73
2022-12-18T10:41:27.866Z,1.84
2022-12-18T10:44:19.043Z,1.85
2022-12-18T10:46:51.222Z,1.77
2022-12-18T10:49:25.772Z,1.71
2022-12-18T10:52:06.376Z,1.72
2022-12-18T10:54:36.794Z,1.74
2022-12-18T10:57:17.034Z,1.86
2022-12-18T10:59:53.915Z,1.92
2022-12-18T11:02:33.225Z,1.92
2022-12-18T11:05:01.315Z,1.97
2022-12-18T11:07:51.007Z,2.03
2022-12-18T11:10:20.720Z,1.96
2022-12-18T11:12:49.093Z,2.02
2022-12-18T11:15:21.607Z,2.06
2022-12-18T11:17:53.676Z,1.98
2022-12-18T11:20:28.815Z,1.92
2022-12-18T11:22:59.719Z,1.78
2022-12-18T11:25:32.765Z,1.71
2022-12-18T11:28:04.122Z,1.70
2022-12-18T11:30:33.424Z,1.73
2022-12-18T11:33:07.476Z,1.80
2022-12-18T11:35:44.667Z,1.80
2022-12-18T11:38:22.213Z,1.89
2022-12-18T11:40:57.899Z,1.92
2022-12-18T11:43:33.841Z,1.94
2022-12-18T11:46:07.427Z,1.96
2022-12-18T11:48:41.677Z,1.89
2022-12-18T11:51:27.263Z,1.90
2022-12-18T11:53:55.410Z,1.94
2022-12-18T11:56:36.715Z,2.00
2022-12-18T11:59:16.551Z,2.01
2022-12-18T12:01:52.838Z,1.89
2022-12-18T12:04:45.896Z,1.96
2022-12-18T12:07:23.852Z,1.92
2022-12-18T12:10:03.588Z,1.88
2022-12-18T12:12:48.973Z,2.00
2022-12-18T12:15:27.976Z,2.10
2022-12-18T12:18:08.187Z,2.11
2022-12-18T12:20:48.087Z,2.13
2022-12-18T12:23:27.809Z,2.14
2022-12-18T12:26:04.023Z,2.24
2022-12-18T12:28:50.616Z,2.36
2022-12-18T12:31:27.707Z,2.39
2022-12-18T12:34:01.919Z,2.33
2022-12-18T12:36:40.073Z,2.27
2022-12-18T12:39:16.874Z,2.40
2022-12-18T12:42:06.225Z,2.37
2022-12-18T12:44:44.328Z,2.26
2022-12-18T12:47:18.114Z,2.34
2022-12-18T12:49:49.997Z,2.39
2022-12-18T12:52:31.864Z,2.47
2022-12-18T12:55:01.664Z,2.44
2022-12-18T12:57:36.511Z,2.44
2022-12-18T13:00:09.072Z,2.50
2022-12-18T13:02:44.729Z,2.54
2022-12-18T13:05:23.797Z,2.54
2022-12-18T13:10:45.081Z,2.52
2022-12-18T13:13:17.095Z,2.55
2022-12-18T13:15:47.482Z,2.78
2022-12-18T13:18:21.727Z,2.68
2022-12-18T13:20:55.209Z,2.69
2022-12-18T13:23:33.072Z,2.72
2022-12-18T13:26:28.177Z,2.77
2022-12-18T13:28:58.715Z,2.84
2022-12-18T13:32:09.743Z,2.84
2022-12-18T13:34:38.478Z,2.79
2022-12-18T13:37:43.307Z,2.80
2022-12-18T13:40:51.029Z,2.76
2022-12-18T13:43:29.137Z,2.79
2022-12-18T13:46:08.684Z,2.87
2022-12-18T13:48:41.392Z,2.77
2022-12-18T13:51:12.418Z,2.82
2022-12-18T13:53:46.228Z,2.81
2022-12-18T13:56:21.292Z,2.79
2022-12-18T13:59:07.741Z,2.85
2022-12-18T14:01:35.822Z,2.77
2022-12-18T14:04:18.555Z,2.76
2022-12-18T14:06:47.465Z,2.76
2022-12-18T14:09:21.407Z,2.81
2022-12-18T14:11:51.514Z,2.80
2022-12-18T14:14:21.548Z,2.84
2022-12-18T14:16:50.332Z,2.84
2022-12-18T14:19:20.494Z,2.89
2022-12-18T14:21:50.124Z,2.81
2022-12-18T14:24:20.789Z,2.92
2022-12-18T14:26:50.895Z,2.93
2022-12-18T14:29:26.359Z,3.01
2022-12-18T14:32:14.964Z,3.11
2022-12-18T14:34:45.510Z,3.12
2022-12-18T14:37:15.076Z,3.13
2022-12-18T14:39:57.072Z,3.19
2022-12-18T14:42:29.236Z,3.16
2022-12-18T14:45:42.715Z,3.19
2022-12-18T14:48:18.358Z,3.15
2022-12-18T14:50:59.305Z,3.11
2022-12-18T14:53:37.350Z,3.08
2022-12-18T14:56:16.441Z,3.03
2022-12-18T14:59:58.389Z,2.99
2022-12-18T15:02:30.987Z,2.78
2022-12-18T15:05:12.759Z,2.77
2022-12-18T15:07:46.063Z,2.78
2022-12-18T15:10:16.343Z,2.77
2022-12-18T15:12:46.102Z,2.84
2022-12-18T15:15:47.862Z,2.79
2022-12-18T15:18:20.848Z,2.77
2022-12-18T15:20:52.024Z,2.76
2022-12-18T15:23:23.196Z,2.80
2022-12-18T15:25:58.220Z,2.90
2022-12-18T15:28:29.119Z,2.92
2022-12-18T15:31:06.078Z,2.98
2022-12-18T15:33:38.646Z,3.00
2022-12-18T15:36:11.338Z,3.02
2022-12-18T15:38:39.542Z,3.03
2022-12-18T15:41:13.873Z,3.05
2022-12-18T15:43:41.675Z,2.83
2022-12-18T15:46:15.094Z,2.97
2022-12-18T15:48:47.243Z,2.95
2022-12-18T15:51:19.373Z,2.91
2022-12-18T15:53:50.059Z,2.92
2022-12-18T15:56:36.048Z,2.93
2022-12-18T15:59:07.053Z,2.91
2022-12-18T16:01:38.321Z,2.89
2022-12-18T16:04:14.190Z,2.87
2022-12-18T16:07:12.815Z,2.87
2022-12-18T16:09:30.815Z,2.85
2022-12-18T16:12:02.931Z,2.82
2022-12-18T16:14:32.336Z,2.64
2022-12-18T16:17:03.075Z,2.76
2022-12-18T16:19:32.353Z,2.76
2022-12-18T16:22:04.220Z,2.80
2022-12-18T16:24:35.140Z,2.70
2022-12-18T16:27:03.752Z,2.67
2022-12-18T16:29:32.138Z,2.65
2022-12-18T16:32:02.059Z,2.59
2022-12-18T16:34:35.394Z,2.53
2022-12-18T16:37:06.629Z,2.59
2022-12-18T16:39:35.537Z,2.69
2022-12-18T16:42:05.659Z,2.50
2022-12-18T16:44:34.534Z,2.53
2022-12-18T16:47:03.929Z,2.51
2022-12-18T16:49:33.406Z,2.50
2022-12-18T16:52:05.102Z,2.52
2022-12-18T16:54:33.991Z,2.45
2022-12-18T16:57:02.641Z,2.44
2022-12-18T16:59:30.731Z,2.34
2022-12-18T17:01:58.990Z,2.34
2022-12-18T17:04:27.447Z,2.04
2022-12-18T17:06:57.402Z,2.05
2022-12-18T17:09:26.216Z,2.15
2022-12-18T17:11:55.324Z,2.19
2022-12-18T17:14:25.162Z,2.27
2022-12-18T17:17:19.593Z,2.15
2022-12-18T17:19:41.624Z,2.21
2022-12-18T17:22:11.196Z,2.30
2022-12-18T17:24:39.436Z,2.44
2022-12-18T17:27:09.258Z,2.36
2022-12-18T17:29:40.153Z,2.49
2022-12-18T17:32:13.739Z,2.40
2022-12-18T17:34:41.918Z,2.29
2022-12-18T17:37:11.249Z,2.31
2022-12-18T17:39:40.037Z,2.42
2022-12-18T17:42:12.074Z,2.29
2022-12-18T17:44:44.818Z,2.44
2022-12-18T17:47:13.429Z,2.42
2022-12-18T17:49:41.982Z,2.35
2022-12-18T17:52:11.715Z,2.34
2022-12-18T17:54:42.238Z,2.29
2022-12-18T17:57:11.698Z,2.04
2022-12-18T17:59:39.686Z,2.14
2022-12-18T18:02:08.364Z,2.25
2022-12-18T18:04:37.681Z,2.10
2022-12-18T18:07:06.065Z,2.24
2022-12-18T18:09:35.563Z,2.16
2022-12-18T18:12:21.044Z,2.29
2022-12-18T18:14:49.183Z,2.18
2022-12-18T18:17:17.392Z,2.16
2022-12-18T18:19:49.031Z,2.16
2022-12-18T18:22:17.810Z,2.12
2022-12-18T18:24:48.530Z,2.19
2022-12-18T18:27:16.884Z,2.27
2022-12-18T18:29:45.427Z,2.31
2022-12-18T18:32:13.370Z,2.39
2022-12-18T18:34:41.575Z,2.39
2022-12-18T18:37:11.148Z,2.35
2022-12-18T18:39:39.424Z,2.45
2022-12-18T18:42:08.923Z,2.49
2022-12-18T18:44:37.297Z,2.57
2022-12-18T18:47:09.504Z,2.52
2022-12-18T18:49:38.120Z,2.48
2022-12-18T18:52:07.114Z,2.41
2022-12-18T18:54:34.962Z,2.58
2022-12-18T18:57:20.038Z,2.55
2022-12-18T18:59:49.903Z,2.64
2022-12-18T19:02:19.054Z,2.69
2022-12-18T19:04:47.310Z,2.74
2022-12-18T19:07:28.119Z,2.73
2022-12-18T19:09:58.138Z,2.65
2022-12-18T19:12:50.123Z,2.56
2022-12-18T19:15:19.594Z,2.75
2022-12-18T19:17:48.037Z,2.85
2022-12-18T19:20:16.662Z,2.80
2022-12-18T19:22:46.064Z,2.74
2022-12-18T19:25:29.936Z,2.78
2022-12-18T19:28:15.980Z,2.88
2022-12-18T19:30:58.657Z,2.81
2022-12-18T19:33:44.407Z,2.88
2022-12-18T19:36:16.729Z,2.70
2022-12-18T19:38:45.647Z,2.69
2022-12-18T19:41:17.650Z,2.79
2022-12-18T19:43:47.082Z,2.60
2022-12-18T19:46:18.200Z,2.59
2022-12-18T19:48:47.732Z,2.59
2022-12-18T19:51:18.576Z,2.56
2022-12-18T19:53:47.190Z,2.73
2022-12-18T19:56:17.569Z,2.72
2022-12-18T19:58:46.310Z,2.76
2022-12-18T20:01:17.251Z,2.88
2022-12-18T20:03:51.619Z,2.54
2022-12-18T20:06:26.420Z,2.52
2022-12-18T20:09:00.156Z,2.76
2022-12-18T20:11:29.208Z,2.70
2022-12-18T20:13:57.358Z,2.68
2022-12-18T20:16:26.893Z,2.88
2022-12-18T20:18:58.896Z,2.85
2022-12-18T20:21:27.271Z,2.82
2022-12-18T20:23:55.768Z,2.68
2022-12-18T20:26:24.824Z,2.70
2022-12-18T20:28:53.944Z,2.73
2022-12-18T20:31:22.436Z,2.79
2022-12-18T20:33:53.375Z,2.81
2022-12-18T20:36:26.911Z,2.78
2022-12-18T20:38:58.056Z,2.81
2022-12-18T20:41:37.395Z,2.53
2022-12-18T20:44:09.873Z,2.52
2022-12-18T20:46:50.891Z,2.31
2022-12-18T20:49:20.243Z,2.38
2022-12-18T20:51:51.418Z,2.50
2022-12-18T20:54:22.520Z,2.39
2022-12-18T20:56:51.140Z,2.30
2022-12-18T20:59:19.807Z,2.50
2022-12-18T21:01:49.531Z,2.43
2022-12-18T21:04:18.872Z,2.37
2022-12-18T21:06:52.885Z,2.44
2022-12-18T21:09:29.978Z,2.53
2022-12-18T21:12:25.620Z,2.44
2022-12-18T21:14:53.819Z,2.53
2022-12-18T21:17:21.887Z,2.50
2022-12-18T21:19:49.750Z,2.53
2022-12-18T21:22:19.447Z,2.70
2022-12-18T21:24:47.317Z,2.84
2022-12-18T21:27:17.825Z,2.92
2022-12-18T21:29:47.026Z,2.89
2022-12-18T21:32:15.329Z,2.99
2022-12-18T21:34:47.855Z,3.09
2022-12-18T21:37:16.622Z,2.91
2022-12-18T21:39:47.955Z,2.88
2022-12-18T21:42:33.705Z,2.83
2022-12-18T21:45:01.875Z,3.00
2022-12-18T21:47:29.956Z,2.83
2022-12-18T21:49:58.123Z,2.92
2022-12-18T21:52:31.347Z,2.97
2022-12-18T21:55:08.555Z,2.98
2022-12-18T21:57:38.594Z,2.96
2022-12-18T22:00:08.897Z,2.89
2022-12-18T22:02:43.042Z,2.92
2022-12-18T22:05:11.419Z,2.90
2022-12-18T22:07:39.941Z,2.81
2022-12-18T22:10:10.432Z,2.79
2022-12-18T22:12:44.387Z,2.88
2022-12-18T22:15:21.352Z,2.84
2022-12-18T22:17:51.140Z,2.96
2022-12-18T22:20:20.697Z,2.76
2022-12-18T22:22:48.718Z,2.92
2022-12-18T22:25:18.108Z,2.90
2022-12-18T22:28:06.961Z,2.99
2022-12-18T22:30:34.020Z,2.90
2022-12-18T22:33:02.704Z,2.79
2022-12-18T22:35:30.690Z,2.74
2022-12-18T22:37:59.518Z,2.86
2022-12-18T22:40:29.511Z,2.83
2022-12-18T22:42:57.606Z,2.88
2022-12-18T22:45:25.769Z,2.74
2022-12-18T22:47:53.984Z,2.80
2022-12-18T22:50:22.060Z,2.69
2022-12-18T22:52:49.943Z,2.71
2022-12-18T22:55:18.431Z,2.80
2022-12-18T22:57:49.166Z,2.82
2022-12-18T23:00:24.291Z,2.53
2022-12-18T23:02:59.413Z,2.58
2022-12-18T23:05:29.714Z,2.67
2022-12-18T23:07:57.909Z,2.91
2022-12-18T23:10:26.056Z,3.02
2022-12-18T23:12:55.491Z,2.77
2022-12-18T23:15:27.905Z,2.45
2022-12-18T23:17:58.825Z,2.41
2022-12-18T23:20:27.805Z,2.31
2022-12-18T23:22:55.941Z,2.53
2022-12-18T23:25:23.878Z,2.37
2022-12-18T23:27:51.832Z,2.50
2022-12-18T23:30:21.092Z,2.58
2022-12-18T23:32:49.043Z,2.61
2022-12-18T23:35:17.257Z,2.60
2022-12-18T23:38:01.059Z,2.79
2022-12-18T23:40:30.387Z,2.44
2022-12-18T23:42:59.604Z,2.66
2022-12-18T23:45:29.205Z,2.61
2022-12-18T23:47:57.315Z,2.68
2022-12-18T23:50:29.315Z,2.79
2022-12-18T23:53:05.186Z,2.84
2022-12-18T23:55:35.544Z,2.88
2022-12-18T23:58:03.512Z,2.87
